createdAt,value
2017-05-13T00:00:41.817Z,1002.86
2017-05-13T00:01:41.840Z,1002.85
2017-05-13T00:02:41.864Z,1002.86
2017-05-13T00:03:41.888Z,1002.86
2017-05-13T00:04:41.911Z,1002.86
2017-05-13T00:05:41.934Z,1002.85
2017-05-13T00:06:41.958Z,1002.85
2017-05-13T00:07:41.981Z,1002.87
2017-05-13T00:08:42.004Z,1002.84
2017-05-13T00:09:42.028Z,1002.84
2017-05-13T00:10:42.053Z,1002.86
2017-05-13T00:11:42.075Z,1002.78
2017-05-13T00:12:42.098Z,1002.81
2017-05-13T00:14:42.146Z,1002.82
2017-05-13T00:15:42.168Z,1002.8
2017-05-13T00:16:42.191Z,1002.82
2017-05-13T00:17:42.216Z,1002.78
2017-05-13T00:18:42.238Z,1002.75
2017-05-13T00:19:42.262Z,1002.75
2017-05-13T00:20:42.285Z,1002.77
2017-05-13T00:21:42.308Z,1002.75
2017-05-13T00:22:42.332Z,1002.77
2017-05-13T00:23:42.356Z,1002.78
2017-05-13T00:24:42.379Z,1002.79
2017-05-13T00:25:42.402Z,1002.78
2017-05-13T00:26:42.425Z,1002.78
2017-05-13T00:27:42.449Z,1002.78
2017-05-13T00:28:42.472Z,1002.78
2017-05-13T00:30:42.518Z,1002.83
2017-05-13T00:31:42.542Z,1002.82
2017-05-13T00:32:42.565Z,1002.81
2017-05-13T00:33:42.588Z,1002.85
2017-05-13T00:34:42.611Z,1002.78
2017-05-13T00:35:42.635Z,1002.77
2017-05-13T00:36:42.659Z,1002.78
2017-05-13T00:37:42.681Z,1002.8
2017-05-13T00:38:42.705Z,1002.8
2017-05-13T00:39:42.728Z,1002.76
2017-05-13T00:40:42.751Z,1002.75
2017-05-13T00:41:42.774Z,1002.75
2017-05-13T00:42:42.799Z,1002.73
2017-05-13T00:43:42.822Z,1002.78
2017-05-13T00:44:42.844Z,1002.76
2017-05-13T00:46:42.891Z,1002.79
2017-05-13T00:47:42.915Z,1002.76
2017-05-13T00:48:42.937Z,1002.75
2017-05-13T00:49:42.962Z,1002.75
2017-05-13T00:50:42.984Z,1002.72
2017-05-13T00:51:43.022Z,1002.69
2017-05-13T00:52:43.040Z,1002.7
2017-05-13T00:53:43.064Z,1002.69
2017-05-13T00:54:43.077Z,1002.69
2017-05-13T00:55:43.109Z,1002.73
2017-05-13T00:56:43.133Z,1002.71
2017-05-13T00:57:43.156Z,1002.73
2017-05-13T00:58:43.172Z,1002.74
2017-05-13T00:59:43.196Z,1002.71
2017-05-13T01:01:43.240Z,1002.7
2017-05-13T01:02:43.262Z,1002.69
2017-05-13T01:03:43.286Z,1002.7
2017-05-13T01:04:43.310Z,1002.67
2017-05-13T01:05:43.332Z,1002.71
2017-05-13T01:06:43.365Z,1002.75
2017-05-13T01:07:43.378Z,1002.75
2017-05-13T01:08:43.402Z,1002.7
2017-05-13T01:09:43.424Z,1002.74
2017-05-13T01:10:43.447Z,1002.74
2017-05-13T01:11:43.471Z,1002.73
2017-05-13T01:12:43.504Z,1002.72
2017-05-13T01:13:43.516Z,1002.74
2017-05-13T01:14:43.540Z,1002.75
2017-05-13T01:15:43.563Z,1002.72
2017-05-13T01:16:43.586Z,1002.73
2017-05-13T01:17:43.609Z,1002.7
2017-05-13T01:18:43.632Z,1002.71
2017-05-13T01:19:43.656Z,1002.76
2017-05-13T01:20:43.678Z,1002.74
2017-05-13T01:21:43.700Z,1002.7
2017-05-13T01:22:43.725Z,1002.68
2017-05-13T01:23:43.748Z,1002.67
2017-05-13T01:24:43.769Z,1002.7
2017-05-13T01:25:43.794Z,1002.71
2017-05-13T01:26:43.816Z,1002.7
2017-05-13T01:27:43.842Z,1002.69
2017-05-13T01:28:43.865Z,1002.68
2017-05-13T01:29:43.885Z,1002.65
2017-05-13T01:30:43.909Z,1002.7
2017-05-13T01:31:43.931Z,1002.73
2017-05-13T01:33:43.978Z,1002.69
2017-05-13T01:34:44.001Z,1002.71
2017-05-13T01:35:44.023Z,1002.73
2017-05-13T01:36:44.046Z,1002.66
2017-05-13T01:37:44.069Z,1002.66
2017-05-13T01:38:44.093Z,1002.68
2017-05-13T01:39:44.116Z,1002.7
2017-05-13T01:40:44.139Z,1002.7
2017-05-13T01:41:44.162Z,1002.7
2017-05-13T01:42:44.184Z,1002.68
2017-05-13T01:43:44.207Z,1002.71
2017-05-13T01:44:44.231Z,1002.66
2017-05-13T01:45:44.253Z,1002.71
2017-05-13T01:46:44.276Z,1002.73
2017-05-13T01:47:44.300Z,1002.71
2017-05-13T01:49:44.349Z,1002.7
2017-05-13T01:50:44.368Z,1002.78
2017-05-13T01:51:44.393Z,1002.72
2017-05-13T01:52:44.414Z,1002.75
2017-05-13T01:53:44.437Z,1002.71
2017-05-13T01:54:44.460Z,1002.79
2017-05-13T01:55:44.483Z,1002.79
2017-05-13T01:56:44.506Z,1002.8
2017-05-13T01:57:44.529Z,1002.81
2017-05-13T01:58:44.551Z,1002.84
2017-05-13T01:59:44.575Z,1002.85
2017-05-13T02:00:44.598Z,1002.83
2017-05-13T02:01:44.621Z,1002.82
2017-05-13T02:02:44.644Z,1002.85
2017-05-13T02:03:44.666Z,1002.86
2017-05-13T02:05:44.711Z,1002.86
2017-05-13T02:06:44.735Z,1002.86
2017-05-13T02:07:44.759Z,1002.9
2017-05-13T02:08:44.781Z,1002.85
2017-05-13T02:09:44.804Z,1002.9
2017-05-13T02:10:44.827Z,1002.88
2017-05-13T02:11:44.850Z,1002.89
2017-05-13T02:12:44.873Z,1002.92
2017-05-13T02:13:44.897Z,1002.91
2017-05-13T02:14:44.920Z,1002.95
2017-05-13T02:15:44.942Z,1002.94
2017-05-13T02:16:44.965Z,1002.99
2017-05-13T02:17:44.988Z,1003.01
2017-05-13T02:18:45.011Z,1003.03
2017-05-13T02:19:45.033Z,1003.04
2017-05-13T02:21:45.080Z,1003.04
2017-05-13T02:22:45.103Z,1003.08
2017-05-13T02:23:45.126Z,1003.09
2017-05-13T02:24:45.149Z,1003.08
2017-05-13T02:25:45.172Z,1003.08
2017-05-13T02:26:45.195Z,1003.08
2017-05-13T02:27:45.217Z,1003.07
2017-05-13T02:28:45.241Z,1003.07
2017-05-13T02:29:45.264Z,1003.1
2017-05-13T02:30:45.286Z,1003.09
2017-05-13T02:31:45.310Z,1003.08
2017-05-13T02:32:45.342Z,1003.09
2017-05-13T02:33:45.356Z,1003.09
2017-05-13T02:34:45.380Z,1003.14
2017-05-13T02:36:45.425Z,1003.13
2017-05-13T02:37:45.448Z,1003.09
2017-05-13T02:38:45.471Z,1003.15
2017-05-13T02:39:45.494Z,1003.14
2017-05-13T02:40:45.518Z,1003.1
2017-05-13T02:41:45.540Z,1003.16
2017-05-13T02:42:45.562Z,1003.17
2017-05-13T02:43:45.586Z,1003.16
2017-05-13T02:44:45.609Z,1003.14
2017-05-13T02:45:45.632Z,1003.17
2017-05-13T02:46:45.655Z,1003.21
2017-05-13T02:47:45.678Z,1003.19
2017-05-13T02:48:45.704Z,1003.17
2017-05-13T02:49:45.723Z,1003.2
2017-05-13T02:50:45.747Z,1003.22
2017-05-13T02:51:45.771Z,1003.2
2017-05-13T02:52:45.794Z,1003.25
2017-05-13T02:53:45.817Z,1003.21
2017-05-13T02:54:45.838Z,1003.17
2017-05-13T02:55:45.862Z,1003.2
2017-05-13T02:56:45.885Z,1003.22
2017-05-13T02:57:45.909Z,1003.23
2017-05-13T02:58:45.932Z,1003.22
2017-05-13T02:59:45.954Z,1003.26
2017-05-13T03:00:45.977Z,1003.26
2017-05-13T03:01:46.000Z,1003.22
2017-05-13T03:02:46.023Z,1003.2
2017-05-13T03:03:46.046Z,1003.22
2017-05-13T03:04:46.070Z,1003.2
2017-05-13T03:05:46.092Z,1003.23
2017-05-13T03:06:46.115Z,1003.22
2017-05-13T03:08:46.161Z,1003.22
2017-05-13T03:09:46.185Z,1003.23
2017-05-13T03:10:46.206Z,1003.24
2017-05-13T03:11:46.230Z,1003.25
2017-05-13T03:12:46.253Z,1003.24
2017-05-13T03:13:46.277Z,1003.26
2017-05-13T03:14:46.299Z,1003.27
2017-05-13T03:15:46.324Z,1003.31
2017-05-13T03:16:46.346Z,1003.29
2017-05-13T03:17:46.367Z,1003.33
2017-05-13T03:18:46.390Z,1003.32
2017-05-13T03:19:46.414Z,1003.32
2017-05-13T03:20:46.437Z,1003.33
2017-05-13T03:21:46.459Z,1003.33
2017-05-13T03:22:46.482Z,1003.34
2017-05-13T03:24:46.530Z,1003.35
2017-05-13T03:25:46.551Z,1003.36
2017-05-13T03:27:46.597Z,1003.37
2017-05-13T03:28:46.621Z,1003.38
2017-05-13T03:29:46.643Z,1003.34
2017-05-13T03:30:46.666Z,1003.37
2017-05-13T03:31:46.689Z,1003.36
2017-05-13T03:32:46.713Z,1003.39
2017-05-13T03:33:46.734Z,1003.36
2017-05-13T03:34:46.758Z,1003.4
2017-05-13T03:35:46.780Z,1003.4
2017-05-13T03:36:46.802Z,1003.4
2017-05-13T03:37:46.827Z,1003.38
2017-05-13T03:38:46.849Z,1003.34
2017-05-13T03:40:46.895Z,1003.39
2017-05-13T03:41:46.918Z,1003.41
2017-05-13T03:42:46.942Z,1003.41
2017-05-13T03:43:46.963Z,1003.38
2017-05-13T03:44:46.986Z,1003.4
2017-05-13T03:45:47.010Z,1003.39
2017-05-13T03:46:47.033Z,1003.42
2017-05-13T03:47:47.056Z,1003.39
2017-05-13T03:48:47.080Z,1003.4
2017-05-13T03:49:47.102Z,1003.42
2017-05-13T03:50:47.124Z,1003.43
2017-05-13T03:51:47.147Z,1003.44
2017-05-13T03:52:47.171Z,1003.44
2017-05-13T03:53:47.194Z,1003.48
2017-05-13T03:54:47.216Z,1003.53
2017-05-13T03:56:47.303Z,1003.54
2017-05-13T03:57:47.286Z,1003.55
2017-05-13T03:58:47.308Z,1003.57
2017-05-13T03:59:47.330Z,1003.55
2017-05-13T04:00:47.354Z,1003.53
2017-05-13T04:01:47.376Z,1003.57
2017-05-13T04:02:47.400Z,1003.54
2017-05-13T04:03:47.423Z,1003.54
2017-05-13T04:04:47.446Z,1003.55
2017-05-13T04:05:47.469Z,1003.57
2017-05-13T04:06:47.495Z,1003.56
2017-05-13T04:07:47.515Z,1003.51
2017-05-13T04:08:47.538Z,1003.51
2017-05-13T04:09:47.561Z,1003.52
2017-05-13T04:11:47.608Z,1003.5
2017-05-13T04:12:47.630Z,1003.55
2017-05-13T04:13:47.653Z,1003.52
2017-05-13T04:14:47.676Z,1003.54
2017-05-13T04:15:47.699Z,1003.5
2017-05-13T04:16:47.721Z,1003.52
2017-05-13T04:17:47.745Z,1003.52
2017-05-13T04:18:47.767Z,1003.53
2017-05-13T04:19:47.789Z,1003.58
2017-05-13T04:20:47.812Z,1003.55
2017-05-13T04:21:47.836Z,1003.62
2017-05-13T04:22:47.859Z,1003.6
2017-05-13T04:23:47.882Z,1003.61
2017-05-13T04:24:47.905Z,1003.59
2017-05-13T04:25:47.928Z,1003.62
2017-05-13T04:26:47.952Z,1003.6
2017-05-13T04:27:47.977Z,1003.62
2017-05-13T04:28:47.997Z,1003.65
2017-05-13T04:29:48.024Z,1003.64
2017-05-13T04:30:48.042Z,1003.66
2017-05-13T04:31:48.065Z,1003.62
2017-05-13T04:32:48.088Z,1003.68
2017-05-13T04:33:48.111Z,1003.66
2017-05-13T04:34:48.133Z,1003.66
2017-05-13T04:35:48.157Z,1003.65
2017-05-13T04:36:48.181Z,1003.66
2017-05-13T04:37:48.203Z,1003.66
2017-05-13T04:38:48.226Z,1003.66
2017-05-13T04:39:48.249Z,1003.65
2017-05-13T04:40:48.273Z,1003.7
2017-05-13T04:41:48.294Z,1003.71
2017-05-13T04:43:48.342Z,1003.7
2017-05-13T04:44:48.365Z,1003.73
2017-05-13T04:45:48.386Z,1003.73
2017-05-13T04:46:48.409Z,1003.77
2017-05-13T04:47:48.433Z,1003.76
2017-05-13T04:48:48.456Z,1003.75
2017-05-13T04:49:48.479Z,1003.74
2017-05-13T04:50:48.502Z,1003.76
2017-05-13T04:51:48.525Z,1003.76
2017-05-13T04:52:48.547Z,1003.79
2017-05-13T04:53:48.570Z,1003.77
2017-05-13T04:54:48.594Z,1003.74
2017-05-13T04:55:48.618Z,1003.79
2017-05-13T04:56:48.640Z,1003.78
2017-05-13T04:57:48.663Z,1003.78
2017-05-13T04:59:48.712Z,1003.79
2017-05-13T05:00:48.732Z,1003.75
2017-05-13T05:01:48.755Z,1003.75
2017-05-13T05:02:48.778Z,1003.79
2017-05-13T05:03:48.801Z,1003.77
2017-05-13T05:04:48.825Z,1003.74
2017-05-13T05:05:48.848Z,1003.72
2017-05-13T05:06:48.871Z,1003.74
2017-05-13T05:07:48.894Z,1003.69
2017-05-13T05:08:48.916Z,1003.76
2017-05-13T05:09:48.940Z,1003.76
2017-05-13T05:10:48.964Z,1003.79
2017-05-13T05:11:48.986Z,1003.77
2017-05-13T05:12:49.009Z,1003.79
2017-05-13T05:13:49.033Z,1003.75
2017-05-13T05:15:49.078Z,1003.79
2017-05-13T05:16:49.102Z,1003.84
2017-05-13T05:17:49.125Z,1003.85
2017-05-13T05:18:49.148Z,1003.82
2017-05-13T05:19:49.171Z,1003.81
2017-05-13T05:20:49.195Z,1003.86
2017-05-13T05:21:49.218Z,1003.9
2017-05-13T05:22:49.241Z,1003.91
2017-05-13T05:23:49.264Z,1003.95
2017-05-13T05:24:49.286Z,1003.93
2017-05-13T05:25:49.309Z,1003.94
2017-05-13T05:26:49.332Z,1003.99
2017-05-13T05:27:49.356Z,1004
2017-05-13T05:28:49.380Z,1004.02
2017-05-13T05:29:49.401Z,1004.02
2017-05-13T05:31:49.448Z,1004.08
2017-05-13T05:32:49.471Z,1004.1
2017-05-13T05:33:49.493Z,1004.12
2017-05-13T05:34:49.516Z,1004.17
2017-05-13T05:35:49.540Z,1004.18
2017-05-13T05:36:49.562Z,1004.2
2017-05-13T05:37:49.585Z,1004.23
2017-05-13T05:38:49.609Z,1004.25
2017-05-13T05:39:49.632Z,1004.26
2017-05-13T05:40:49.654Z,1004.27
2017-05-13T05:41:49.678Z,1004.3
2017-05-13T05:42:49.701Z,1004.3
2017-05-13T05:43:49.724Z,1004.3
2017-05-13T05:44:49.747Z,1004.31
2017-05-13T05:46:49.793Z,1004.37
2017-05-13T05:47:49.815Z,1004.39
2017-05-13T05:48:49.839Z,1004.42
2017-05-13T05:49:49.862Z,1004.39
2017-05-13T05:50:49.885Z,1004.42
2017-05-13T05:51:49.907Z,1004.49
2017-05-13T05:52:49.930Z,1004.5
2017-05-13T05:53:49.954Z,1004.49
2017-05-13T05:54:49.977Z,1004.55
2017-05-13T05:55:50.000Z,1004.5
2017-05-13T05:56:50.023Z,1004.52
2017-05-13T05:57:50.046Z,1004.53
2017-05-13T05:58:50.068Z,1004.59
2017-05-13T05:59:50.092Z,1004.56
2017-05-13T06:00:50.116Z,1004.6
2017-05-13T06:01:50.139Z,1004.62
2017-05-13T06:02:50.161Z,1004.65
2017-05-13T06:03:50.184Z,1004.64
2017-05-13T06:04:50.208Z,1004.66
2017-05-13T06:05:50.230Z,1004.69
2017-05-13T06:06:50.253Z,1004.64
2017-05-13T06:07:50.277Z,1004.67
2017-05-13T06:08:50.300Z,1004.7
2017-05-13T06:09:50.322Z,1004.7
2017-05-13T06:10:50.345Z,1004.7
2017-05-13T06:11:50.369Z,1004.7
2017-05-13T06:12:50.392Z,1004.71
2017-05-13T06:13:50.414Z,1004.72
2017-05-13T06:14:50.440Z,1004.68
2017-05-13T06:15:50.461Z,1004.66
2017-05-13T06:16:50.483Z,1004.68
2017-05-13T06:18:50.530Z,1004.65
2017-05-13T06:19:50.554Z,1004.73
2017-05-13T06:20:50.577Z,1004.73
2017-05-13T06:21:50.599Z,1004.7
2017-05-13T06:22:50.622Z,1004.7
2017-05-13T06:23:50.646Z,1004.72
2017-05-13T06:24:50.668Z,1004.68
2017-05-13T06:25:50.692Z,1004.76
2017-05-13T06:26:50.715Z,1004.69
2017-05-13T06:27:50.738Z,1004.71
2017-05-13T06:28:50.761Z,1004.74
2017-05-13T06:29:50.785Z,1004.76
2017-05-13T06:30:50.808Z,1004.75
2017-05-13T06:31:50.830Z,1004.73
2017-05-13T06:32:50.854Z,1004.74
2017-05-13T06:34:50.901Z,1004.71
2017-05-13T06:35:50.923Z,1004.71
2017-05-13T06:36:50.946Z,1004.67
2017-05-13T06:37:50.971Z,1004.68
2017-05-13T06:38:50.993Z,1004.72
2017-05-13T06:39:51.017Z,1004.67
2017-05-13T06:40:51.040Z,1004.73
2017-05-13T06:41:51.064Z,1004.71
2017-05-13T06:42:51.086Z,1004.76
2017-05-13T06:43:51.110Z,1004.74
2017-05-13T06:44:51.133Z,1004.73
2017-05-13T06:45:51.157Z,1004.75
2017-05-13T06:46:51.180Z,1004.71
2017-05-13T06:47:51.203Z,1004.72
2017-05-13T06:48:51.227Z,1004.76
2017-05-13T06:50:51.273Z,1004.76
2017-05-13T06:51:51.297Z,1004.76
2017-05-13T06:52:51.321Z,1004.75
2017-05-13T06:53:51.343Z,1004.79
2017-05-13T06:54:51.367Z,1004.82
2017-05-13T06:55:51.390Z,1004.84
2017-05-13T06:56:51.414Z,1004.89
2017-05-13T06:57:51.437Z,1004.87
2017-05-13T06:58:51.461Z,1004.92
2017-05-13T06:59:51.485Z,1004.94
2017-05-13T07:00:51.508Z,1004.97
2017-05-13T07:01:51.532Z,1005
2017-05-13T07:02:51.555Z,1005.03
2017-05-13T07:03:51.581Z,1005.1
2017-05-13T07:04:51.602Z,1005.06
2017-05-13T07:06:51.650Z,1005.13
2017-05-13T07:07:51.676Z,1005.15
2017-05-13T07:08:51.697Z,1005.13
2017-05-13T07:09:51.720Z,1005.17
2017-05-13T07:10:51.745Z,1005.12
2017-05-13T07:11:51.768Z,1005.21
2017-05-13T07:12:51.792Z,1005.17
2017-05-13T07:13:51.816Z,1005.2
2017-05-13T07:14:51.839Z,1005.2
2017-05-13T07:15:51.863Z,1005.2
2017-05-13T07:16:51.886Z,1005.2
2017-05-13T07:17:51.911Z,1005.2
2017-05-13T07:18:51.935Z,1005.19
2017-05-13T07:19:51.958Z,1005.18
2017-05-13T07:21:52.007Z,1005.17
2017-05-13T07:22:52.030Z,1005.2
2017-05-13T07:23:52.054Z,1005.2
2017-05-13T07:24:52.079Z,1005.17
2017-05-13T07:25:52.102Z,1005.2
2017-05-13T07:26:52.125Z,1005.19
2017-05-13T07:27:52.150Z,1005.25
2017-05-13T07:28:52.174Z,1005.26
2017-05-13T07:29:52.197Z,1005.26
2017-05-13T07:30:52.221Z,1005.22
2017-05-13T07:31:52.245Z,1005.24
2017-05-13T07:32:52.270Z,1005.22
2017-05-13T07:33:52.293Z,1005.22
2017-05-13T07:34:52.317Z,1005.21
2017-05-13T07:35:52.341Z,1005.18
2017-05-13T07:36:52.365Z,1005.26
2017-05-13T07:37:52.388Z,1005.24
2017-05-13T07:38:52.413Z,1005.26
2017-05-13T07:39:52.436Z,1005.29
2017-05-13T07:40:52.460Z,1005.32
2017-05-13T07:41:52.484Z,1005.33
2017-05-13T07:42:52.507Z,1005.3
2017-05-13T07:43:52.533Z,1005.33
2017-05-13T07:44:52.556Z,1005.35
2017-05-13T07:45:52.580Z,1005.36
2017-05-13T07:46:52.604Z,1005.39
2017-05-13T07:47:52.630Z,1005.4
2017-05-13T07:48:52.652Z,1005.43
2017-05-13T07:49:52.676Z,1005.42
2017-05-13T07:50:52.700Z,1005.44
2017-05-13T07:51:52.723Z,1005.51
2017-05-13T07:53:52.772Z,1005.47
2017-05-13T07:54:52.798Z,1005.52
2017-05-13T07:55:52.820Z,1005.53
2017-05-13T07:56:52.844Z,1005.56
2017-05-13T07:57:52.867Z,1005.59
2017-05-13T07:58:52.892Z,1005.6
2017-05-13T07:59:52.915Z,1005.62
2017-05-13T08:00:52.940Z,1005.69
2017-05-13T08:01:52.964Z,1005.69
2017-05-13T08:02:52.987Z,1005.72
2017-05-13T08:03:53.011Z,1005.72
2017-05-13T08:04:53.036Z,1005.76
2017-05-13T08:05:53.060Z,1005.78
2017-05-13T08:06:53.086Z,1005.76
2017-05-13T08:07:53.108Z,1005.79
2017-05-13T08:09:53.156Z,1005.83
2017-05-13T08:10:53.179Z,1005.84
2017-05-13T08:11:53.203Z,1005.86
2017-05-13T08:12:53.227Z,1005.85
2017-05-13T08:13:53.250Z,1005.89
2017-05-13T08:14:53.275Z,1005.9
2017-05-13T08:15:53.299Z,1005.89
2017-05-13T08:16:53.323Z,1005.9
2017-05-13T08:17:53.347Z,1005.89
2017-05-13T08:18:53.371Z,1005.92
2017-05-13T08:19:53.395Z,1005.95
2017-05-13T08:20:53.420Z,1005.9
2017-05-13T08:21:53.443Z,1005.95
2017-05-13T08:22:53.467Z,1005.95
2017-05-13T08:23:53.491Z,1005.98
2017-05-13T08:25:53.539Z,1005.99
2017-05-13T08:26:53.563Z,1006.06
2017-05-13T08:27:53.587Z,1006.08
2017-05-13T08:28:53.610Z,1006.03
2017-05-13T08:29:53.635Z,1006.05
2017-05-13T08:30:53.660Z,1006.08
2017-05-13T08:31:53.684Z,1006.05
2017-05-13T08:32:53.707Z,1006.07
2017-05-13T08:33:53.732Z,1006.09
2017-05-13T08:34:53.755Z,1006.07
2017-05-13T08:35:53.779Z,1006.05
2017-05-13T08:36:53.804Z,1006.1
2017-05-13T08:37:53.828Z,1006.09
2017-05-13T08:38:53.851Z,1006.12
2017-05-13T08:39:53.875Z,1006.15
2017-05-13T08:41:53.923Z,1006.18
2017-05-13T08:42:53.949Z,1006.18
2017-05-13T08:43:53.972Z,1006.25
2017-05-13T08:44:53.996Z,1006.24
2017-05-13T08:45:54.021Z,1006.23
2017-05-13T08:46:54.044Z,1006.24
2017-05-13T08:47:54.069Z,1006.25
2017-05-13T08:48:54.093Z,1006.32
2017-05-13T08:49:54.118Z,1006.31
2017-05-13T08:50:54.141Z,1006.32
2017-05-13T08:51:54.165Z,1006.32
2017-05-13T08:52:54.190Z,1006.36
2017-05-13T08:53:54.216Z,1006.35
2017-05-13T08:54:54.239Z,1006.34
2017-05-13T08:56:54.288Z,1006.4
2017-05-13T08:57:54.311Z,1006.43
2017-05-13T08:58:54.337Z,1006.42
2017-05-13T08:59:54.360Z,1006.43
2017-05-13T09:00:54.384Z,1006.43
2017-05-13T09:01:54.407Z,1006.45
2017-05-13T09:02:54.432Z,1006.46
2017-05-13T09:03:54.456Z,1006.46
2017-05-13T09:04:54.479Z,1006.42
2017-05-13T09:05:54.504Z,1006.47
2017-05-13T09:06:54.527Z,1006.48
2017-05-13T09:07:54.551Z,1006.48
2017-05-13T09:08:54.575Z,1006.47
2017-05-13T09:09:54.600Z,1006.48
2017-05-13T09:10:54.625Z,1006.53
2017-05-13T09:11:54.649Z,1006.53
2017-05-13T09:12:54.671Z,1006.53
2017-05-13T09:13:54.696Z,1006.58
2017-05-13T09:14:54.720Z,1006.6
2017-05-13T09:15:54.744Z,1006.59
2017-05-13T09:16:54.768Z,1006.61
2017-05-13T09:17:54.791Z,1006.59
2017-05-13T09:18:54.816Z,1006.57
2017-05-13T09:19:54.840Z,1006.6
2017-05-13T09:20:54.864Z,1006.62
2017-05-13T09:21:54.888Z,1006.65
2017-05-13T09:22:54.913Z,1006.65
2017-05-13T09:23:54.936Z,1006.65
2017-05-13T09:24:54.960Z,1006.65
2017-05-13T09:25:54.984Z,1006.66
2017-05-13T09:26:55.008Z,1006.67
2017-05-13T09:28:55.057Z,1006.64
2017-05-13T09:29:55.081Z,1006.68
2017-05-13T09:30:55.104Z,1006.68
2017-05-13T09:31:55.129Z,1006.7
2017-05-13T09:32:55.153Z,1006.68
2017-05-13T09:33:55.177Z,1006.67
2017-05-13T09:34:55.200Z,1006.67
2017-05-13T09:35:55.227Z,1006.66
2017-05-13T09:36:55.248Z,1006.69
2017-05-13T09:37:55.273Z,1006.68
2017-05-13T09:38:55.296Z,1006.69
2017-05-13T09:39:55.321Z,1006.67
2017-05-13T09:40:55.346Z,1006.67
2017-05-13T09:41:55.369Z,1006.68
2017-05-13T09:42:55.393Z,1006.7
2017-05-13T09:44:55.442Z,1006.69
2017-05-13T09:45:55.466Z,1006.72
2017-05-13T09:46:55.492Z,1006.72
2017-05-13T09:47:55.514Z,1006.72
2017-05-13T09:48:55.543Z,1006.73
2017-05-13T09:49:55.562Z,1006.69
2017-05-13T09:50:55.586Z,1006.7
2017-05-13T09:51:55.612Z,1006.75
2017-05-13T09:52:55.634Z,1006.76
2017-05-13T09:53:55.659Z,1006.75
2017-05-13T09:54:55.684Z,1006.79
2017-05-13T09:55:55.709Z,1006.77
2017-05-13T09:56:55.733Z,1006.8
2017-05-13T09:57:55.757Z,1006.81
2017-05-13T09:58:55.780Z,1006.83
2017-05-13T10:00:55.829Z,1006.8
2017-05-13T10:01:55.853Z,1006.85
2017-05-13T10:02:55.878Z,1006.82
2017-05-13T10:03:55.902Z,1006.86
2017-05-13T10:04:55.926Z,1006.86
2017-05-13T10:05:55.951Z,1006.81
2017-05-13T10:06:55.976Z,1006.85
2017-05-13T10:07:55.999Z,1006.87
2017-05-13T10:08:56.025Z,1006.89
2017-05-13T10:09:56.050Z,1006.89
2017-05-13T10:10:56.073Z,1006.87
2017-05-13T10:11:56.098Z,1006.86
2017-05-13T10:12:56.123Z,1006.87
2017-05-13T10:13:56.148Z,1006.92
2017-05-13T10:14:56.171Z,1006.89
2017-05-13T10:16:56.220Z,1006.94
2017-05-13T10:17:56.245Z,1006.94
2017-05-13T10:18:56.269Z,1006.92
2017-05-13T10:19:56.294Z,1006.92
2017-05-13T10:20:56.318Z,1006.96
2017-05-13T10:21:56.343Z,1006.97
2017-05-13T10:22:56.368Z,1007.03
2017-05-13T10:23:56.393Z,1007
2017-05-13T10:24:56.418Z,1007
2017-05-13T10:25:56.442Z,1007.01
2017-05-13T10:26:56.467Z,1007.05
2017-05-13T10:27:56.492Z,1007.06
2017-05-13T10:28:56.518Z,1007.06
2017-05-13T10:29:56.543Z,1007.06
2017-05-13T10:31:56.592Z,1007.03
2017-05-13T10:32:56.617Z,1007.06
2017-05-13T10:33:56.642Z,1007.05
2017-05-13T10:34:56.667Z,1007.08
2017-05-13T10:35:56.692Z,1007.05
2017-05-13T10:36:56.717Z,1007.03
2017-05-13T10:37:56.743Z,1007.05
2017-05-13T10:38:56.768Z,1007.04
2017-05-13T10:39:56.792Z,1007.07
2017-05-13T10:40:56.817Z,1007.06
2017-05-13T10:41:56.843Z,1007.09
2017-05-13T10:42:56.869Z,1007.05
2017-05-13T10:43:56.892Z,1007.1
2017-05-13T10:44:56.918Z,1007.08
2017-05-13T10:45:56.944Z,1007.08
2017-05-13T10:46:56.970Z,1007.1
2017-05-13T10:47:56.994Z,1007.1
2017-05-13T10:48:57.019Z,1007.12
2017-05-13T10:49:57.045Z,1007.12
2017-05-13T10:50:57.070Z,1007.13
2017-05-13T10:51:57.095Z,1007.08
2017-05-13T10:52:57.120Z,1007.06
2017-05-13T10:53:57.147Z,1007.06
2017-05-13T10:54:57.171Z,1007.07
2017-05-13T10:55:57.198Z,1007.13
2017-05-13T10:56:57.223Z,1007.1
2017-05-13T10:57:57.249Z,1007.08
2017-05-13T10:58:57.274Z,1007.09
2017-05-13T10:59:57.299Z,1007.1
2017-05-13T11:00:57.325Z,1007.13
2017-05-13T11:01:57.350Z,1007.09
2017-05-13T11:03:57.402Z,1007.1
2017-05-13T11:04:57.428Z,1007.11
2017-05-13T11:05:57.453Z,1007.1
2017-05-13T11:06:57.479Z,1007.12
2017-05-13T11:07:57.504Z,1007.11
2017-05-13T11:08:57.531Z,1007.13
2017-05-13T11:09:57.555Z,1007.14
2017-05-13T11:10:57.581Z,1007.08
2017-05-13T11:11:57.608Z,1007.13
2017-05-13T11:12:57.633Z,1007.13
2017-05-13T11:13:57.659Z,1007.12
2017-05-13T11:14:57.685Z,1007.14
2017-05-13T11:15:57.711Z,1007.13
2017-05-13T11:16:57.736Z,1007.13
2017-05-13T11:17:57.762Z,1007.13
2017-05-13T11:19:57.814Z,1007.17
2017-05-13T11:20:57.839Z,1007.19
2017-05-13T11:21:57.865Z,1007.14
2017-05-13T11:22:57.891Z,1007.11
2017-05-13T11:23:57.916Z,1007.18
2017-05-13T11:24:57.941Z,1007.15
2017-05-13T11:25:57.968Z,1007.17
2017-05-13T11:26:57.994Z,1007.16
2017-05-13T11:27:58.019Z,1007.19
2017-05-13T11:28:58.045Z,1007.16
2017-05-13T11:29:58.071Z,1007.18
2017-05-13T11:30:58.138Z,1007.17
2017-05-13T11:31:58.121Z,1007.17
2017-05-13T11:32:58.148Z,1007.17
2017-05-13T11:33:58.173Z,1007.2
2017-05-13T11:35:58.225Z,1007.24
2017-05-13T11:36:58.251Z,1007.23
2017-05-13T11:37:58.277Z,1007.22
2017-05-13T11:38:58.302Z,1007.23
2017-05-13T11:39:58.328Z,1007.23
2017-05-13T11:40:58.355Z,1007.21
2017-05-13T11:41:58.381Z,1007.22
2017-05-13T11:42:58.405Z,1007.23
2017-05-13T11:43:58.432Z,1007.2
2017-05-13T11:44:58.458Z,1007.18
2017-05-13T11:45:58.484Z,1007.15
2017-05-13T11:46:58.510Z,1007.19
2017-05-13T11:47:58.536Z,1007.14
2017-05-13T11:48:58.562Z,1007.14
2017-05-13T11:49:58.587Z,1007.15
2017-05-13T11:51:58.640Z,1007.17
2017-05-13T11:52:58.667Z,1007.19
2017-05-13T11:53:58.692Z,1007.18
2017-05-13T11:54:58.718Z,1007.18
2017-05-13T11:55:58.745Z,1007.18
2017-05-13T11:56:58.769Z,1007.21
2017-05-13T11:57:58.797Z,1007.2
2017-05-13T11:58:58.823Z,1007.16
2017-05-13T11:59:58.849Z,1007.19
2017-05-13T12:00:58.873Z,1007.19
2017-05-13T12:01:58.901Z,1007.17
2017-05-13T12:02:58.929Z,1007.18
2017-05-13T12:03:58.954Z,1007.17
2017-05-13T12:04:58.982Z,1007.2
2017-05-13T12:06:59.033Z,1007.18
2017-05-13T12:07:59.058Z,1007.2
2017-05-13T12:08:59.084Z,1007.2
2017-05-13T12:09:59.110Z,1007.2
2017-05-13T12:10:59.137Z,1007.2
2017-05-13T12:11:59.162Z,1007.23
2017-05-13T12:12:59.188Z,1007.22
2017-05-13T12:13:59.215Z,1007.22
2017-05-13T12:14:59.240Z,1007.24
2017-05-13T12:15:59.267Z,1007.17
2017-05-13T12:16:59.293Z,1007.18
2017-05-13T12:17:59.319Z,1007.15
2017-05-13T12:18:59.344Z,1007.13
2017-05-13T12:19:59.371Z,1007.16
2017-05-13T12:20:59.398Z,1007.16
2017-05-13T12:21:59.424Z,1007.21
2017-05-13T12:22:59.449Z,1007.22
2017-05-13T12:23:59.475Z,1007.17
2017-05-13T12:24:59.502Z,1007.18
2017-05-13T12:25:59.527Z,1007.2
2017-05-13T12:26:59.554Z,1007.18
2017-05-13T12:27:59.583Z,1007.2
2017-05-13T12:28:59.607Z,1007.23
2017-05-13T12:29:59.632Z,1007.24
2017-05-13T12:30:59.659Z,1007.24
2017-05-13T12:31:59.685Z,1007.21
2017-05-13T12:32:59.712Z,1007.24
2017-05-13T12:33:59.737Z,1007.27
2017-05-13T12:34:59.764Z,1007.27
2017-05-13T12:35:59.791Z,1007.26
2017-05-13T12:36:59.816Z,1007.25
2017-05-13T12:38:59.869Z,1007.29
2017-05-13T12:39:59.896Z,1007.28
2017-05-13T12:40:59.922Z,1007.25
2017-05-13T12:41:59.949Z,1007.27
2017-05-13T12:42:59.976Z,1007.25
2017-05-13T12:44:00.003Z,1007.25
2017-05-13T12:45:00.028Z,1007.25
2017-05-13T12:46:00.055Z,1007.21
2017-05-13T12:47:00.081Z,1007.22
2017-05-13T12:48:00.108Z,1007.22
2017-05-13T12:49:00.136Z,1007.25
2017-05-13T12:50:00.162Z,1007.25